sensor_id;sensor_type;location;lat;lon;timestamp;pressure;altitude;pressure_sealevel;temperature;humidity
11952;BME280;6036;41.840;23.486;2022-08-11T00:02:51;90633.47;;;21.19;49.42
11952;BME280;6036;41.840;23.486;2022-08-11T00:05:19;90639.25;;;21.10;49.33
11952;BME280;6036;41.840;23.486;2022-08-11T00:07:53;90633.66;;;20.91;49.52
11952;BME280;6036;41.840;23.486;2022-08-11T00:10:25;90637.50;;;20.83;49.48
11952;BME280;6036;41.840;23.486;2022-08-11T00:12:56;90638.16;;;21.01;48.55
11952;BME280;6036;41.840;23.486;2022-08-11T00:15:23;90647.28;;;21.00;48.81
11952;BME280;6036;41.840;23.486;2022-08-11T00:17:55;90640.06;;;20.97;48.71
11952;BME280;6036;41.840;23.486;2022-08-11T00:20:29;90644.25;;;20.98;48.58
11952;BME280;6036;41.840;23.486;2022-08-11T00:23:01;90646.50;;;21.03;48.40
11952;BME280;6036;41.840;23.486;2022-08-11T00:25:28;90630.25;;;21.42;47.33
11952;BME280;6036;41.840;23.486;2022-08-11T00:27:54;90629.19;;;21.32;47.47
11952;BME280;6036;41.840;23.486;2022-08-11T00:30:20;90625.56;;;21.05;48.46
11952;BME280;6036;41.840;23.486;2022-08-11T00:32:53;90638.13;;;21.08;49.93
11952;BME280;6036;41.840;23.486;2022-08-11T00:35:25;90628.72;;;20.89;51.15
11952;BME280;6036;41.840;23.486;2022-08-11T00:37:53;90632.94;;;20.83;52.24
11952;BME280;6036;41.840;23.486;2022-08-11T00:40:32;90637.97;;;20.70;52.10
11952;BME280;6036;41.840;23.486;2022-08-11T00:45:45;90641.00;;;20.72;52.27
11952;BME280;6036;41.840;23.486;2022-08-11T00:48:37;90633.38;;;20.74;52.05
11952;BME280;6036;41.840;23.486;2022-08-11T00:54:01;90633.47;;;20.60;52.59
11952;BME280;6036;41.840;23.486;2022-08-11T00:57:02;90636.22;;;20.46;53.46
11952;BME280;6036;41.840;23.486;2022-08-11T01:02:58;90640.09;;;20.28;53.75
11952;BME280;6036;41.840;23.486;2022-08-11T01:18:56;90641.75;;;18.52;61.41
11952;BME280;6036;41.840;23.486;2022-08-11T01:30:14;90632.09;;;20.31;55.63
11952;BME280;6036;41.840;23.486;2022-08-11T01:35:45;90622.25;;;20.32;54.75
11952;BME280;6036;41.840;23.486;2022-08-11T01:41:28;90629.91;;;20.05;55.21
11952;BME280;6036;41.840;23.486;2022-08-11T01:44:20;90628.25;;;20.46;54.08
11952;BME280;6036;41.840;23.486;2022-08-11T01:56:32;90618.88;;;20.86;52.60
11952;BME280;6036;41.840;23.486;2022-08-11T01:59:14;90618.66;;;21.18;52.12
11952;BME280;6036;41.840;23.486;2022-08-11T02:02:07;90617.72;;;21.38;52.10
11952;BME280;6036;41.840;23.486;2022-08-11T02:04:52;90621.81;;;20.99;52.69
11952;BME280;6036;41.840;23.486;2022-08-11T02:07:34;90611.00;;;20.68;52.74
11952;BME280;6036;41.840;23.486;2022-08-11T02:10:26;90611.47;;;20.53;52.16
11952;BME280;6036;41.840;23.486;2022-08-11T02:13:36;90609.84;;;20.73;51.61
11952;BME280;6036;41.840;23.486;2022-08-11T02:22:41;90610.06;;;21.44;49.94
11952;BME280;6036;41.840;23.486;2022-08-11T02:25:36;90612.28;;;21.49;50.31
11952;BME280;6036;41.840;23.486;2022-08-11T02:28:22;90611.13;;;21.09;52.16
11952;BME280;6036;41.840;23.486;2022-08-11T02:31:07;90607.69;;;21.12;52.62
11952;BME280;6036;41.840;23.486;2022-08-11T02:34:01;90608.00;;;21.18;52.48
11952;BME280;6036;41.840;23.486;2022-08-11T02:39:37;90599.50;;;20.13;54.27
11952;BME280;6036;41.840;23.486;2022-08-11T02:51:03;90593.00;;;20.28;53.17
11952;BME280;6036;41.840;23.486;2022-08-11T02:56:15;90604.22;;;20.57;53.18
11952;BME280;6036;41.840;23.486;2022-08-11T03:01:54;90605.84;;;20.99;52.73
11952;BME280;6036;41.840;23.486;2022-08-11T03:07:24;90605.13;;;20.95;51.92
11952;BME280;6036;41.840;23.486;2022-08-11T03:15:51;90609.06;;;20.76;52.79
11952;BME280;6036;41.840;23.486;2022-08-11T03:19:02;90600.91;;;20.42;53.83
11952;BME280;6036;41.840;23.486;2022-08-11T03:21:44;90611.97;;;20.30;54.36
11952;BME280;6036;41.840;23.486;2022-08-11T03:24:23;90612.28;;;20.43;54.04
11952;BME280;6036;41.840;23.486;2022-08-11T03:27:24;90613.91;;;20.26;53.89
11952;BME280;6036;41.840;23.486;2022-08-11T03:32:28;90613.06;;;20.43;53.52
11952;BME280;6036;41.840;23.486;2022-08-11T03:34:56;90619.75;;;20.65;53.00
11952;BME280;6036;41.840;23.486;2022-08-11T03:37:53;90626.56;;;20.73;52.98
11952;BME280;6036;41.840;23.486;2022-08-11T03:40:46;90621.72;;;20.54;54.05
11952;BME280;6036;41.840;23.486;2022-08-11T03:49:50;90620.81;;;19.95;55.45
11952;BME280;6036;41.840;23.486;2022-08-11T03:52:48;90612.84;;;19.95;55.34
11952;BME280;6036;41.840;23.486;2022-08-11T03:55:18;90611.03;;;19.82;54.78
11952;BME280;6036;41.840;23.486;2022-08-11T04:01:01;90612.91;;;19.81;54.70
11952;BME280;6036;41.840;23.486;2022-08-11T04:21:09;90603.66;;;20.21;52.42
11952;BME280;6036;41.840;23.486;2022-08-11T05:14:53;90622.28;;;21.79;51.35
11952;BME280;6036;41.840;23.486;2022-08-11T05:17:45;90612.47;;;22.10;50.07
11952;BME280;6036;41.840;23.486;2022-08-11T05:20:44;90621.88;;;22.48;48.82
11952;BME280;6036;41.840;23.486;2022-08-11T05:23:31;90617.66;;;21.83;50.47
11952;BME280;6036;41.840;23.486;2022-08-11T05:26:18;90617.03;;;21.68;51.29
11952;BME280;6036;41.840;23.486;2022-08-11T05:29:25;90608.06;;;21.92;50.99
11952;BME280;6036;41.840;23.486;2022-08-11T05:32:12;90606.50;;;21.95;50.55
11952;BME280;6036;41.840;23.486;2022-08-11T05:34:59;90615.59;;;22.01;50.95
11952;BME280;6036;41.840;23.486;2022-08-11T05:40:10;90607.91;;;22.67;48.98
11952;BME280;6036;41.840;23.486;2022-08-11T05:43:07;90608.06;;;23.10;48.02
11952;BME280;6036;41.840;23.486;2022-08-11T05:46:00;90608.09;;;23.56;47.04
11952;BME280;6036;41.840;23.486;2022-08-11T05:48:45;90612.66;;;23.56;47.35
11952;BME280;6036;41.840;23.486;2022-08-11T05:51:35;90612.47;;;23.89;47.02
11952;BME280;6036;41.840;23.486;2022-08-11T05:54:19;90613.69;;;23.85;47.20
11952;BME280;6036;41.840;23.486;2022-08-11T05:57:04;90603.69;;;23.89;46.84
11952;BME280;6036;41.840;23.486;2022-08-11T05:59:30;90607.16;;;24.09;46.72
11952;BME280;6036;41.840;23.486;2022-08-11T06:02:05;90609.63;;;25.43;43.83
11952;BME280;6036;41.840;23.486;2022-08-11T06:04:32;90601.69;;;26.17;42.55
11952;BME280;6036;41.840;23.486;2022-08-11T06:07:05;90597.97;;;26.11;42.60
11952;BME280;6036;41.840;23.486;2022-08-11T06:09:59;90600.94;;;26.70;41.18
11952;BME280;6036;41.840;23.486;2022-08-11T06:12:28;90602.28;;;26.78;40.25
11952;BME280;6036;41.840;23.486;2022-08-11T06:15:03;90600.97;;;26.29;41.59
11952;BME280;6036;41.840;23.486;2022-08-11T06:17:31;90599.00;;;26.58;41.02
11952;BME280;6036;41.840;23.486;2022-08-11T06:22:29;90607.41;;;27.36;40.45
11952;BME280;6036;41.840;23.486;2022-08-11T06:24:57;90605.06;;;27.38;38.95
11952;BME280;6036;41.840;23.486;2022-08-11T06:27:25;90609.03;;;27.46;39.05
11952;BME280;6036;41.840;23.486;2022-08-11T06:29:52;90602.91;;;26.82;40.30
11952;BME280;6036;41.840;23.486;2022-08-11T06:32:19;90603.47;;;27.28;39.00
11952;BME280;6036;41.840;23.486;2022-08-11T06:43:05;90606.22;;;27.74;37.63
11952;BME280;6036;41.840;23.486;2022-08-11T06:45:48;90607.66;;;28.01;37.96
11952;BME280;6036;41.840;23.486;2022-08-11T06:48:17;90603.19;;;27.72;36.94
11952;BME280;6036;41.840;23.486;2022-08-11T06:50:54;90597.78;;;28.41;36.01
11952;BME280;6036;41.840;23.486;2022-08-11T06:53:46;90603.84;;;28.32;35.39
11952;BME280;6036;41.840;23.486;2022-08-11T06:56:14;90599.22;;;28.33;35.47
11952;BME280;6036;41.840;23.486;2022-08-11T06:59:00;90593.13;;;27.39;36.84
11952;BME280;6036;41.840;23.486;2022-08-11T07:02:16;90598.66;;;28.60;35.70
11952;BME280;6036;41.840;23.486;2022-08-11T07:13:39;90593.22;;;30.01;32.41
11952;BME280;6036;41.840;23.486;2022-08-11T07:16:33;90594.59;;;30.60;31.34
11952;BME280;6036;41.840;23.486;2022-08-11T07:19:04;90599.81;;;30.00;32.65
11952;BME280;6036;41.840;23.486;2022-08-11T07:21:49;90597.44;;;30.47;31.89
11952;BME280;6036;41.840;23.486;2022-08-11T07:24:39;90591.09;;;30.96;31.35
11952;BME280;6036;41.840;23.486;2022-08-11T07:27:46;90590.53;;;30.55;31.07
11952;BME280;6036;41.840;23.486;2022-08-11T07:30:33;90585.59;;;30.17;31.50
11952;BME280;6036;41.840;23.486;2022-08-11T07:33:02;90588.75;;;30.16;31.61
11952;BME280;6036;41.840;23.486;2022-08-11T07:35:50;90586.41;;;29.60;32.65
11952;BME280;6036;41.840;23.486;2022-08-11T07:38:41;90589.34;;;30.56;30.84
11952;BME280;6036;41.840;23.486;2022-08-11T07:41:13;90587.53;;;30.26;31.43
11952;BME280;6036;41.840;23.486;2022-08-11T07:43:39;90586.31;;;30.91;30.73
11952;BME280;6036;41.840;23.486;2022-08-11T07:46:06;90589.81;;;31.15;30.30
11952;BME280;6036;41.840;23.486;2022-08-11T07:48:51;90585.78;;;31.76;29.31
11952;BME280;6036;41.840;23.486;2022-08-11T07:51:37;90594.41;;;32.60;28.84
11952;BME280;6036;41.840;23.486;2022-08-11T07:54:22;90590.50;;;32.90;28.60
11952;BME280;6036;41.840;23.486;2022-08-11T07:56:49;90580.50;;;33.25;26.92
11952;BME280;6036;41.840;23.486;2022-08-11T07:59:16;90590.03;;;33.35;26.93
11952;BME280;6036;41.840;23.486;2022-08-11T08:02:01;90582.75;;;33.12;26.64
11952;BME280;6036;41.840;23.486;2022-08-11T08:04:45;90587.19;;;33.59;26.50
11952;BME280;6036;41.840;23.486;2022-08-11T08:07:30;90576.63;;;33.47;26.82
11952;BME280;6036;41.840;23.486;2022-08-11T08:10:16;90578.78;;;34.32;24.99
11952;BME280;6036;41.840;23.486;2022-08-11T08:13:01;90580.78;;;33.77;25.25
11952;BME280;6036;41.840;23.486;2022-08-11T08:15:46;90581.72;;;33.24;26.08
11952;BME280;6036;41.840;23.486;2022-08-11T08:18:33;90576.84;;;33.78;25.30
11952;BME280;6036;41.840;23.486;2022-08-11T08:21:00;90577.97;;;34.46;24.06
11952;BME280;6036;41.840;23.486;2022-08-11T08:23:37;90580.03;;;34.77;24.62
11952;BME280;6036;41.840;23.486;2022-08-11T08:26:06;90576.06;;;33.92;24.55
11952;BME280;6036;41.840;23.486;2022-08-11T08:28:51;90574.94;;;31.19;28.69
11952;BME280;6036;41.840;23.486;2022-08-11T08:31:17;90577.59;;;32.85;27.13
11952;BME280;6036;41.840;23.486;2022-08-11T08:33:43;90574.22;;;32.61;26.03
11952;BME280;6036;41.840;23.486;2022-08-11T08:36:09;90582.03;;;33.61;25.03
11952;BME280;6036;41.840;23.486;2022-08-11T08:38:47;90577.69;;;33.34;24.63
11952;BME280;6036;41.840;23.486;2022-08-11T08:41:16;90570.25;;;33.50;24.53
11952;BME280;6036;41.840;23.486;2022-08-11T08:43:47;90570.03;;;33.68;23.96
11952;BME280;6036;41.840;23.486;2022-08-11T08:46:17;90573.75;;;34.65;23.41
11952;BME280;6036;41.840;23.486;2022-08-11T08:48:44;90565.88;;;34.99;23.25
11952;BME280;6036;41.840;23.486;2022-08-11T08:51:11;90567.91;;;35.61;22.79
11952;BME280;6036;41.840;23.486;2022-08-11T08:54:00;90565.75;;;36.18;22.08
11952;BME280;6036;41.840;23.486;2022-08-11T08:56:28;90569.56;;;35.89;21.41
11952;BME280;6036;41.840;23.486;2022-08-11T08:58:56;90555.03;;;35.30;22.24
11952;BME280;6036;41.840;23.486;2022-08-11T09:01:24;90557.47;;;35.54;22.23
11952;BME280;6036;41.840;23.486;2022-08-11T09:03:51;90561.53;;;36.12;22.34
11952;BME280;6036;41.840;23.486;2022-08-11T09:06:17;90552.69;;;34.86;22.26
11952;BME280;6036;41.840;23.486;2022-08-11T09:08:44;90559.34;;;35.11;22.99
11952;BME280;6036;41.840;23.486;2022-08-11T09:11:10;90561.19;;;35.99;21.99
11952;BME280;6036;41.840;23.486;2022-08-11T09:13:57;90563.25;;;36.15;21.17
11952;BME280;6036;41.840;23.486;2022-08-11T09:16:23;90557.41;;;35.90;21.42
11952;BME280;6036;41.840;23.486;2022-08-11T09:18:50;90559.16;;;36.36;21.13
11952;BME280;6036;41.840;23.486;2022-08-11T09:21:17;90555.41;;;35.85;20.10
11952;BME280;6036;41.840;23.486;2022-08-11T09:23:48;90559.53;;;36.07;21.57
11952;BME280;6036;41.840;23.486;2022-08-11T09:26:33;90549.25;;;35.17;21.32
11952;BME280;6036;41.840;23.486;2022-08-11T09:29:18;90543.06;;;35.48;20.74
11952;BME280;6036;41.840;23.486;2022-08-11T09:31:44;90545.47;;;35.09;22.16
11952;BME280;6036;41.840;23.486;2022-08-11T09:34:12;90548.84;;;35.29;22.16
11952;BME280;6036;41.840;23.486;2022-08-11T09:36:42;90545.34;;;35.97;21.59
11952;BME280;6036;41.840;23.486;2022-08-11T09:39:29;90542.16;;;35.62;22.22
11952;BME280;6036;41.840;23.486;2022-08-11T09:42:15;90538.47;;;35.28;23.22
11952;BME280;6036;41.840;23.486;2022-08-11T09:44:41;90531.50;;;34.96;22.63
11952;BME280;6036;41.840;23.486;2022-08-11T09:47:27;90542.06;;;34.88;22.74
11952;BME280;6036;41.840;23.486;2022-08-11T09:50:00;90543.19;;;35.33;22.67
11952;BME280;6036;41.840;23.486;2022-08-11T09:52:29;90536.03;;;35.36;20.49
11952;BME280;6036;41.840;23.486;2022-08-11T09:54:56;90527.84;;;35.67;19.50
11952;BME280;6036;41.840;23.486;2022-08-11T09:57:24;90529.22;;;35.93;19.96
11952;BME280;6036;41.840;23.486;2022-08-11T10:00:10;90526.44;;;35.82;21.66
11952;BME280;6036;41.840;23.486;2022-08-11T10:02:44;90521.06;;;35.20;21.85
11952;BME280;6036;41.840;23.486;2022-08-11T10:05:10;90526.84;;;35.02;21.52
11952;BME280;6036;41.840;23.486;2022-08-11T10:07:56;90520.22;;;35.76;20.53
11952;BME280;6036;41.840;23.486;2022-08-11T10:10:23;90520.41;;;35.31;21.42
11952;BME280;6036;41.840;23.486;2022-08-11T10:12:58;90531.47;;;34.44;22.15
11952;BME280;6036;41.840;23.486;2022-08-11T10:15:29;90533.66;;;33.60;22.42
11952;BME280;6036;41.840;23.486;2022-08-11T10:18:09;90525.19;;;33.72;23.25
11952;BME280;6036;41.840;23.486;2022-08-11T10:20:58;90526.91;;;34.10;22.82
11952;BME280;6036;41.840;23.486;2022-08-11T10:23:26;90529.88;;;33.92;23.75
11952;BME280;6036;41.840;23.486;2022-08-11T10:26:11;90525.41;;;33.89;23.53
11952;BME280;6036;41.840;23.486;2022-08-11T10:28:55;90526.50;;;33.97;23.93
11952;BME280;6036;41.840;23.486;2022-08-11T10:31:21;90528.66;;;34.33;23.80
11952;BME280;6036;41.840;23.486;2022-08-11T10:34:09;90525.31;;;33.14;25.36
11952;BME280;6036;41.840;23.486;2022-08-11T10:36:40;90522.81;;;33.10;25.05
11952;BME280;6036;41.840;23.486;2022-08-11T10:39:15;90522.44;;;33.17;25.68
11952;BME280;6036;41.840;23.486;2022-08-11T10:41:44;90528.34;;;33.16;24.99
11952;BME280;6036;41.840;23.486;2022-08-11T10:44:31;90530.28;;;33.01;25.76
11952;BME280;6036;41.840;23.486;2022-08-11T10:47:01;90523.06;;;33.62;25.02
11952;BME280;6036;41.840;23.486;2022-08-11T10:49:45;90522.56;;;33.28;24.47
11952;BME280;6036;41.840;23.486;2022-08-11T10:52:31;90517.69;;;32.83;25.37
11952;BME280;6036;41.840;23.486;2022-08-11T10:55:16;90516.53;;;33.54;23.69
11952;BME280;6036;41.840;23.486;2022-08-11T10:58:00;90525.31;;;33.49;23.89
11952;BME280;6036;41.840;23.486;2022-08-11T11:00:44;90520.09;;;34.00;22.74
11952;BME280;6036;41.840;23.486;2022-08-11T11:03:10;90523.91;;;33.88;22.87
11952;BME280;6036;41.840;23.486;2022-08-11T11:05:37;90524.19;;;34.10;22.46
11952;BME280;6036;41.840;23.486;2022-08-11T11:08:10;90523.91;;;33.33;22.97
11952;BME280;6036;41.840;23.486;2022-08-11T11:10:57;90514.28;;;31.11;26.77
11952;BME280;6036;41.840;23.486;2022-08-11T11:13:24;90516.31;;;30.05;29.25
11952;BME280;6036;41.840;23.486;2022-08-11T11:16:09;90521.03;;;29.38;30.41
11952;BME280;6036;41.840;23.486;2022-08-11T11:18:56;90522.75;;;28.74;30.96
11952;BME280;6036;41.840;23.486;2022-08-11T11:21:24;90513.56;;;28.93;30.16
11952;BME280;6036;41.840;23.486;2022-08-11T11:26:49;90518.25;;;29.11;29.43
11952;BME280;6036;41.840;23.486;2022-08-11T11:35:12;90529.59;;;29.63;30.62
11952;BME280;6036;41.840;23.486;2022-08-11T11:37:41;90527.19;;;29.56;30.94
11952;BME280;6036;41.840;23.486;2022-08-11T11:40:13;90526.84;;;29.27;31.57
11952;BME280;6036;41.840;23.486;2022-08-11T11:42:42;90522.72;;;29.14;31.54
11952;BME280;6036;41.840;23.486;2022-08-11T11:45:10;90527.94;;;28.99;31.71
11952;BME280;6036;41.840;23.486;2022-08-11T11:47:36;90540.44;;;28.84;35.92
11952;BME280;6036;41.840;23.486;2022-08-11T11:50:04;90552.44;;;28.92;38.78
11952;BME280;6036;41.840;23.486;2022-08-11T11:52:31;90560.78;;;28.76;39.33
11952;BME280;6036;41.840;23.486;2022-08-11T11:54:57;90558.09;;;28.32;41.51
11952;BME280;6036;41.840;23.486;2022-08-11T11:57:24;90565.41;;;27.76;43.05
11952;BME280;6036;41.840;23.486;2022-08-11T12:00:10;90561.72;;;27.83;43.08
11952;BME280;6036;41.840;23.486;2022-08-11T12:02:57;90574.28;;;27.64;41.03
11952;BME280;6036;41.840;23.486;2022-08-11T12:05:24;90572.75;;;27.63;42.70
11952;BME280;6036;41.840;23.486;2022-08-11T12:07:52;90564.56;;;26.94;44.46
11952;BME280;6036;41.840;23.486;2022-08-11T12:10:51;90569.97;;;26.53;49.05
11952;BME280;6036;41.840;23.486;2022-08-11T12:13:38;90576.19;;;26.50;47.78
11952;BME280;6036;41.840;23.486;2022-08-11T12:16:08;90586.16;;;26.24;48.66
11952;BME280;6036;41.840;23.486;2022-08-11T12:18:34;90576.97;;;25.93;48.97
11952;BME280;6036;41.840;23.486;2022-08-11T12:21:02;90592.03;;;25.58;48.40
11952;BME280;6036;41.840;23.486;2022-08-11T12:23:28;90585.16;;;25.41;49.25
11952;BME280;6036;41.840;23.486;2022-08-11T12:26:15;90594.97;;;25.80;50.28
11952;BME280;6036;41.840;23.486;2022-08-11T12:29:01;90600.72;;;25.95;48.00
11952;BME280;6036;41.840;23.486;2022-08-11T12:31:31;90603.41;;;25.95;46.35
11952;BME280;6036;41.840;23.486;2022-08-11T12:34:01;90604.31;;;25.88;46.29
11952;BME280;6036;41.840;23.486;2022-08-11T12:36:28;90600.91;;;26.16;45.51
11952;BME280;6036;41.840;23.486;2022-08-11T12:38:56;90606.66;;;26.31;45.04
11952;BME280;6036;41.840;23.486;2022-08-11T12:41:23;90627.03;;;25.83;47.29
11952;BME280;6036;41.840;23.486;2022-08-11T12:44:09;90629.75;;;25.67;48.77
11952;BME280;6036;41.840;23.486;2022-08-11T12:46:56;90643.84;;;25.55;48.29
11952;BME280;6036;41.840;23.486;2022-08-11T12:49:24;90663.38;;;24.65;47.54
11952;BME280;6036;41.840;23.486;2022-08-11T12:52:18;90658.84;;;25.01;48.70
11952;BME280;6036;41.840;23.486;2022-08-11T12:57:36;90659.38;;;24.73;47.00
11952;BME280;6036;41.840;23.486;2022-08-11T13:00:21;90669.81;;;24.87;47.06
11952;BME280;6036;41.840;23.486;2022-08-11T13:03:08;90671.75;;;24.67;46.54
11952;BME280;6036;41.840;23.486;2022-08-11T13:05:55;90668.19;;;24.53;47.15
11952;BME280;6036;41.840;23.486;2022-08-11T13:08:23;90677.66;;;24.38;49.00
11952;BME280;6036;41.840;23.486;2022-08-11T13:10:50;90682.88;;;24.26;51.01
11952;BME280;6036;41.840;23.486;2022-08-11T13:13:36;90682.22;;;23.95;50.02
11952;BME280;6036;41.840;23.486;2022-08-11T13:16:04;90675.88;;;23.89;49.90
11952;BME280;6036;41.840;23.486;2022-08-11T13:18:31;90668.91;;;23.72;50.66
11952;BME280;6036;41.840;23.486;2022-08-11T13:20:58;90667.34;;;23.74;51.31
11952;BME280;6036;41.840;23.486;2022-08-11T13:23:25;90665.06;;;23.73;54.66
11952;BME280;6036;41.840;23.486;2022-08-11T13:25:52;90661.00;;;23.65;54.41
11952;BME280;6036;41.840;23.486;2022-08-11T13:28:20;90649.00;;;23.00;55.64
11952;BME280;6036;41.840;23.486;2022-08-11T13:30:48;90642.31;;;22.58;56.83
11952;BME280;6036;41.840;23.486;2022-08-11T13:33:34;90636.69;;;22.83;56.87
11952;BME280;6036;41.840;23.486;2022-08-11T13:36:00;90634.22;;;22.95;57.07
11952;BME280;6036;41.840;23.486;2022-08-11T13:38:26;90636.16;;;22.64;57.21
11952;BME280;6036;41.840;23.486;2022-08-11T13:40:53;90625.13;;;22.89;57.48
11952;BME280;6036;41.840;23.486;2022-08-11T13:43:20;90621.72;;;22.89;58.00
11952;BME280;6036;41.840;23.486;2022-08-11T13:45:47;90628.28;;;23.34;56.31
11952;BME280;6036;41.840;23.486;2022-08-11T13:48:14;90617.88;;;23.16;56.19
11952;BME280;6036;41.840;23.486;2022-08-11T13:50:40;90604.00;;;23.71;55.46
11952;BME280;6036;41.840;23.486;2022-08-11T13:53:26;90603.03;;;24.05;54.91
11952;BME280;6036;41.840;23.486;2022-08-11T13:55:53;90600.56;;;24.33;54.99
11952;BME280;6036;41.840;23.486;2022-08-11T13:58:20;90607.84;;;23.90;56.75
11952;BME280;6036;41.840;23.486;2022-08-11T14:00:49;90606.69;;;23.91;55.99
11952;BME280;6036;41.840;23.486;2022-08-11T14:03:19;90601.22;;;22.82;59.79
11952;BME280;6036;41.840;23.486;2022-08-11T14:05:49;90606.06;;;22.64;61.04
11952;BME280;6036;41.840;23.486;2022-08-11T14:08:26;90605.00;;;21.94;62.14
11952;BME280;6036;41.840;23.486;2022-08-11T14:10:58;90604.34;;;21.86;61.28
11952;BME280;6036;41.840;23.486;2022-08-11T14:13:44;90613.16;;;22.14;60.29
11952;BME280;6036;41.840;23.486;2022-08-11T14:16:22;90600.56;;;22.44;59.51
11952;BME280;6036;41.840;23.486;2022-08-11T14:18:52;90607.56;;;22.35;60.33
11952;BME280;6036;41.840;23.486;2022-08-11T14:21:21;90602.66;;;22.60;59.66
11952;BME280;6036;41.840;23.486;2022-08-11T14:24:06;90600.22;;;22.73;58.05
11952;BME280;6036;41.840;23.486;2022-08-11T14:26:36;90598.59;;;23.05;57.54
11952;BME280;6036;41.840;23.486;2022-08-11T14:29:07;90587.53;;;22.80;58.16
11952;BME280;6036;41.840;23.486;2022-08-11T14:31:37;90595.44;;;22.30;60.50
11952;BME280;6036;41.840;23.486;2022-08-11T14:34:06;90589.44;;;22.80;60.11
11952;BME280;6036;41.840;23.486;2022-08-11T14:36:37;90593.59;;;23.07;58.23
11952;BME280;6036;41.840;23.486;2022-08-11T14:39:07;90600.38;;;23.39;56.03
11952;BME280;6036;41.840;23.486;2022-08-11T14:41:36;90593.72;;;23.50;57.04
11952;BME280;6036;41.840;23.486;2022-08-11T14:44:20;90592.56;;;23.71;56.30
11952;BME280;6036;41.840;23.486;2022-08-11T14:47:22;90594.53;;;24.29;55.07
11952;BME280;6036;41.840;23.486;2022-08-11T14:49:48;90592.84;;;24.19;55.44
11952;BME280;6036;41.840;23.486;2022-08-11T14:52:17;90587.72;;;24.44;54.27
11952;BME280;6036;41.840;23.486;2022-08-11T14:54:47;90582.22;;;23.92;54.54
11952;BME280;6036;41.840;23.486;2022-08-11T14:57:34;90572.72;;;23.91;54.51
11952;BME280;6036;41.840;23.486;2022-08-11T15:00:03;90574.16;;;23.96;54.49
11952;BME280;6036;41.840;23.486;2022-08-11T15:02:29;90579.31;;;24.26;53.11
11952;BME280;6036;41.840;23.486;2022-08-11T15:05:14;90580.31;;;23.93;53.95
11952;BME280;6036;41.840;23.486;2022-08-11T15:07:40;90573.47;;;24.31;53.45
11952;BME280;6036;41.840;23.486;2022-08-11T15:10:08;90581.25;;;24.81;51.55
11952;BME280;6036;41.840;23.486;2022-08-11T15:12:35;90574.41;;;24.77;51.21
11952;BME280;6036;41.840;23.486;2022-08-11T15:15:03;90578.88;;;24.47;51.92
11952;BME280;6036;41.840;23.486;2022-08-11T15:17:48;90570.41;;;24.13;52.01
11952;BME280;6036;41.840;23.486;2022-08-11T15:20:17;90568.44;;;23.55;53.09
11952;BME280;6036;41.840;23.486;2022-08-11T15:23:02;90575.88;;;23.44;53.81
11952;BME280;6036;41.840;23.486;2022-08-11T15:25:52;90569.59;;;24.16;52.58
11952;BME280;6036;41.840;23.486;2022-08-11T15:28:19;90560.13;;;24.31;51.92
11952;BME280;6036;41.840;23.486;2022-08-11T15:31:05;90560.72;;;23.80;52.25
11952;BME280;6036;41.840;23.486;2022-08-11T15:34:07;90570.53;;;23.20;54.49
11952;BME280;6036;41.840;23.486;2022-08-11T15:36:57;90558.75;;;23.41;54.86
11952;BME280;6036;41.840;23.486;2022-08-11T15:39:50;90568.97;;;23.66;54.48
11952;BME280;6036;41.840;23.486;2022-08-11T15:42:44;90563.34;;;24.23;52.90
11952;BME280;6036;41.840;23.486;2022-08-11T15:45:31;90559.16;;;24.57;50.63
11952;BME280;6036;41.840;23.486;2022-08-11T15:48:34;90558.59;;;24.66;49.51
11952;BME280;6036;41.840;23.486;2022-08-11T15:51:17;90550.16;;;24.68;48.54
11952;BME280;6036;41.840;23.486;2022-08-11T15:53:52;90547.50;;;24.84;48.34
11952;BME280;6036;41.840;23.486;2022-08-11T15:56:22;90556.63;;;24.86;47.78
11952;BME280;6036;41.840;23.486;2022-08-11T15:58:50;90553.97;;;25.02;47.00
11952;BME280;6036;41.840;23.486;2022-08-11T16:01:36;90547.19;;;24.98;46.14
11952;BME280;6036;41.840;23.486;2022-08-11T16:04:36;90548.19;;;24.88;47.22
11952;BME280;6036;41.840;23.486;2022-08-11T16:09:32;90552.38;;;25.05;47.25
11952;BME280;6036;41.840;23.486;2022-08-11T16:12:03;90556.56;;;24.90;47.45
11952;BME280;6036;41.840;23.486;2022-08-11T16:14:36;90549.53;;;24.96;47.39
11952;BME280;6036;41.840;23.486;2022-08-11T16:17:23;90555.41;;;25.23;47.16
11952;BME280;6036;41.840;23.486;2022-08-11T16:19:52;90552.28;;;25.08;47.47
11952;BME280;6036;41.840;23.486;2022-08-11T16:22:29;90555.50;;;24.68;48.19
11952;BME280;6036;41.840;23.486;2022-08-11T16:25:05;90565.00;;;24.52;49.00
11952;BME280;6036;41.840;23.486;2022-08-11T16:27:36;90558.78;;;24.39;48.94
11952;BME280;6036;41.840;23.486;2022-08-11T16:30:03;90554.13;;;23.65;51.06
11952;BME280;6036;41.840;23.486;2022-08-11T16:32:30;90550.44;;;24.18;49.93
11952;BME280;6036;41.840;23.486;2022-08-11T16:34:59;90554.75;;;24.67;48.73
11952;BME280;6036;41.840;23.486;2022-08-11T16:37:45;90547.28;;;24.58;49.00
11952;BME280;6036;41.840;23.486;2022-08-11T16:40:31;90549.72;;;24.69;49.72
11952;BME280;6036;41.840;23.486;2022-08-11T16:42:58;90550.75;;;24.39;52.44
11952;BME280;6036;41.840;23.486;2022-08-11T16:45:43;90557.00;;;23.74;55.36
11952;BME280;6036;41.840;23.486;2022-08-11T16:48:34;90552.72;;;23.80;54.44
11952;BME280;6036;41.840;23.486;2022-08-11T16:51:00;90557.22;;;23.83;53.83
11952;BME280;6036;41.840;23.486;2022-08-11T16:53:29;90564.31;;;23.50;54.21
11952;BME280;6036;41.840;23.486;2022-08-11T16:55:57;90564.22;;;23.77;54.02
11952;BME280;6036;41.840;23.486;2022-08-11T16:58:29;90560.09;;;23.92;53.28
11952;BME280;6036;41.840;23.486;2022-08-11T17:01:16;90559.22;;;24.18;52.55
11952;BME280;6036;41.840;23.486;2022-08-11T17:03:47;90568.06;;;24.15;51.54
11952;BME280;6036;41.840;23.486;2022-08-11T17:06:34;90570.06;;;24.11;51.49
11952;BME280;6036;41.840;23.486;2022-08-11T17:09:21;90571.84;;;24.18;51.25